»·PEaware :: N3499M KSAN-KMRY

N3499M :: KSAN-KMRY

FLIGHT INFORMATION

Flight Status: Arrived
Operator: Privately registered:
United States
More flights under this callsign
Pilot: Steven N. (12360)
Aircraft: CESSNA 550 CITATION 2/S2/BRAVO
(C550)
More flights by this aircraft type
Origin: KSAN San Diego Intl-Lindbergh
United States
Destination: KMRY Monterey Peninsula
United States
More flights between these airports :: More routes between these airports
Route: +PEBLE6 SXC LAX RZS SNS
File this flight plan on PilotEdge
Remarks:
Altitude:
(Current/Filed)
32,000ft
Speed:
(Current/Filed)
400kts
Departed: 30-Jan-20 01:51 PM
Arrived: 30-Jan-20 03:08 PM
Distance/Time
Traveled:
326nm/1:17
Distance/Time
To Go:
Arrived

Flight Plot

Page will automatically refresh every two minutes.

Flight plan parsing failed; only flown route is shown


Map Options




Map Legend


Flown Route
Filed Route
Departure Airport
Arrival Airport
Navaid (VOR, NDB)
Fix

Horizontal Profiles

Position Reports

Time Latitude Longitude Heading Altitude Ground
Speed
30-Jan-20 13:19 32.734448 -117.185911 196 19ft 0kts
30-Jan-20 13:20 32.734448 -117.185911 196 19ft 0kts
30-Jan-20 13:21 32.734448 -117.185911 196 19ft 0kts
30-Jan-20 13:22 32.734448 -117.185911 196 19ft 0kts
30-Jan-20 13:23 32.734448 -117.185911 196 19ft 0kts
30-Jan-20 13:24 32.734448 -117.185911 196 19ft 0kts
30-Jan-20 13:25 32.734448 -117.185911 196 19ft 0kts
30-Jan-20 13:26 32.734448 -117.185911 196 19ft 0kts
30-Jan-20 13:27 32.734448 -117.185911 196 19ft 0kts
30-Jan-20 13:28 32.734448 -117.185911 196 19ft 0kts
30-Jan-20 13:29 32.734448 -117.185911 196 19ft 0kts
30-Jan-20 13:30 32.734448 -117.185911 196 19ft 0kts
30-Jan-20 13:31 32.734448 -117.185911 196 19ft 0kts
30-Jan-20 13:32 32.734448 -117.185911 196 19ft 0kts
30-Jan-20 13:33 32.734448 -117.185911 196 19ft 0kts
30-Jan-20 13:34 32.734448 -117.185911 196 19ft 0kts
30-Jan-20 13:35 32.734448 -117.185911 196 19ft 0kts
30-Jan-20 13:36 32.734448 -117.185911 196 19ft 0kts
30-Jan-20 13:37 32.734448 -117.185911 196 19ft 0kts
30-Jan-20 13:38 32.734448 -117.185911 196 19ft 0kts
30-Jan-20 13:39 32.734448 -117.185911 196 19ft 0kts
30-Jan-20 13:41 32.734448 -117.185911 196 19ft 0kts
30-Jan-20 13:42 32.734448 -117.185911 196 19ft 0kts
30-Jan-20 13:43 32.734448 -117.185911 196 19ft 0kts
30-Jan-20 13:44 32.734448 -117.185911 196 19ft 0kts
30-Jan-20 13:45 32.734448 -117.185911 196 19ft 0kts
30-Jan-20 13:46 32.734448 -117.185911 196 19ft 0kts
30-Jan-20 13:47 32.734466 -117.185905 196 19ft 2kts
30-Jan-20 13:48 32.731992 -117.178559 106 19ft 38kts
30-Jan-20 13:49 32.730940 -117.175528 141 23ft 0kts
30-Jan-20 13:50 32.730814 -117.175419 146 23ft 9kts
30-Jan-20 13:51 32.735636 -117.197992 285 691ft 151kts
30-Jan-20 13:52 32.757998 -117.250829 303 4043ft 180kts
30-Jan-20 13:53 32.785462 -117.299006 304 7389ft 183kts
30-Jan-20 13:54 32.813863 -117.349297 307 10471ft 189kts
30-Jan-20 13:55 32.843943 -117.402544 309 13140ft 200kts
30-Jan-20 13:56 32.875459 -117.457510 310 15636ft 206kts
30-Jan-20 13:57 32.922125 -117.494231 332 17874ft 205kts
30-Jan-20 13:58 32.971756 -117.529263 332 19901ft 211kts
30-Jan-20 13:59 33.013741 -117.578959 313 21740ft 221kts
30-Jan-20 14:00 33.052108 -117.637231 313 23145ft 237kts
30-Jan-20 14:01 33.093759 -117.700612 312 24594ft 242kts
30-Jan-20 14:01 33.129238 -117.755157 312 25758ft 246kts
30-Jan-20 14:03 33.178189 -117.831631 307 27222ft 253kts
30-Jan-20 14:03 33.202531 -117.897476 297 28142ft 271kts
30-Jan-20 14:05 33.238795 -118.006715 296 28178ft 329kts
30-Jan-20 14:05 33.267908 -118.094751 296 28185ft 350kts
30-Jan-20 14:07 33.310550 -118.223930 295 28181ft 364kts
30-Jan-20 14:07 33.341599 -118.318264 295 28182ft 368kts
30-Jan-20 14:08 33.405589 -118.407470 334 28182ft 360kts
30-Jan-20 14:09 33.505197 -118.423062 356 28174ft 365kts
30-Jan-20 14:10 33.604167 -118.439759 328 28162ft 363kts
30-Jan-20 14:11 33.672246 -118.530025 312 28160ft 366kts
30-Jan-20 14:12 33.737092 -118.625261 312 28148ft 366kts
30-Jan-20 14:13 33.799793 -118.717064 311 28144ft 367kts
30-Jan-20 14:14 33.864682 -118.812173 311 28143ft 367kts
30-Jan-20 14:15 33.929605 -118.907576 311 28146ft 368kts
30-Jan-20 14:16 33.994752 -119.003566 311 28148ft 370kts
30-Jan-20 14:17 34.059917 -119.099845 310 28149ft 372kts
30-Jan-20 14:18 34.125551 -119.197083 310 28150ft 373kts
30-Jan-20 14:19 34.191253 -119.294681 310 28147ft 374kts
30-Jan-20 14:20 34.256931 -119.392515 310 28146ft 375kts
30-Jan-20 14:21 34.322477 -119.490421 310 28146ft 375kts
30-Jan-20 14:22 34.388079 -119.588683 310 28145ft 375kts
30-Jan-20 14:23 34.452707 -119.685752 310 28147ft 375kts
30-Jan-20 14:24 34.521654 -119.779859 321 28147ft 373kts
30-Jan-20 14:25 34.606823 -119.851535 326 28155ft 373kts
30-Jan-20 14:26 34.692754 -119.922423 326 28162ft 373kts
30-Jan-20 14:27 34.778578 -119.993484 326 28170ft 373kts
30-Jan-20 14:28 34.864053 -120.064468 326 28177ft 372kts
30-Jan-20 14:29 34.949769 -120.135839 326 28188ft 371kts
30-Jan-20 14:30 35.034694 -120.206733 326 28198ft 369kts
30-Jan-20 14:31 35.119271 -120.277516 326 28211ft 367kts
30-Jan-20 14:32 35.203706 -120.348354 326 28212ft 367kts
30-Jan-20 14:33 35.286417 -120.417942 326 27043ft 354kts
30-Jan-20 14:34 35.366861 -120.485771 327 25634ft 347kts
30-Jan-20 14:35 35.445978 -120.552643 327 24227ft 345kts
30-Jan-20 14:36 35.524893 -120.619514 327 22816ft 345kts
30-Jan-20 14:37 35.600581 -120.683806 326 21466ft 345kts
30-Jan-20 14:38 35.679694 -120.751172 327 20056ft 346kts
30-Jan-20 14:39 35.759081 -120.818938 327 18637ft 346kts
30-Jan-20 14:40 35.835163 -120.884099 327 17217ft 317kts
30-Jan-20 14:41 35.905023 -120.943993 327 15980ft 295kts
30-Jan-20 14:42 35.968775 -120.998788 327 15959ft 268kts
30-Jan-20 14:43 36.028786 -121.050426 328 15959ft 257kts
30-Jan-20 14:44 36.086773 -121.100426 328 15943ft 251kts
30-Jan-20 14:45 36.143588 -121.149514 328 14475ft 252kts
30-Jan-20 14:46 36.200687 -121.198965 329 12989ft 247kts
30-Jan-20 14:47 36.256745 -121.247594 328 11495ft 243kts
30-Jan-20 14:48 36.304504 -121.308686 314 10044ft 244kts
30-Jan-20 14:49 36.344340 -121.369508 314 9981ft 208kts
30-Jan-20 14:50 36.379717 -121.424439 314 9981ft 199kts
30-Jan-20 14:51 36.416699 -121.480768 314 8898ft 220kts
30-Jan-20 14:52 36.457234 -121.539300 314 7988ft 212kts
30-Jan-20 14:53 36.494080 -121.592343 314 7989ft 194kts
30-Jan-20 14:54 36.528727 -121.642550 314 7990ft 188kts
30-Jan-20 14:55 36.563196 -121.692643 313 7991ft 190kts
30-Jan-20 14:56 36.597192 -121.746399 303 7830ft 212kts
30-Jan-20 14:57 36.628209 -121.814622 302 6425ft 234kts
30-Jan-20 14:58 36.653716 -121.890201 292 5076ft 235kts
30-Jan-20 14:59 36.676433 -121.962819 293 4002ft 204kts
30-Jan-20 15:00 36.695096 -122.021242 293 3995ft 164kts
30-Jan-20 15:01 36.680878 -122.060726 170 3538ft 194kts
30-Jan-20 15:02 36.643945 -122.015201 108 2530ft 195kts
30-Jan-20 15:03 36.625868 -121.959492 111 1971ft 152kts
30-Jan-20 15:04 36.610430 -121.913697 111 1208ft 138kts
30-Jan-20 15:05 36.597323 -121.874872 112 553ft 110kts
30-Jan-20 15:06 36.587161 -121.844917 112 209ft 46kts
30-Jan-20 15:07 36.587361 -121.842841 292 209ft 26kts
30-Jan-20 15:08 36.590621 -121.852417 293 209ft 18kts

Navigation Log

Ident Type
Flight plan parsing failed, navigation log unavailable